sensor_id;sensor_type;location;lat;lon;timestamp;pressure;altitude;pressure_sealevel;temperature;humidity
1616;BME280;801;47.982;7.810;2023-02-04T00:01:35;100233.13;;;6.06;100.00
1616;BME280;801;47.982;7.810;2023-02-04T00:04:02;100215.56;;;6.18;100.00
1616;BME280;801;47.982;7.810;2023-02-04T00:06:30;100223.66;;;6.03;100.00
1616;BME280;801;47.982;7.810;2023-02-04T00:08:56;100217.94;;;6.28;100.00
1616;BME280;801;47.982;7.810;2023-02-04T00:11:23;100216.97;;;6.35;100.00
1616;BME280;801;47.982;7.810;2023-02-04T00:13:49;100221.44;;;6.28;100.00
1616;BME280;801;47.982;7.810;2023-02-04T00:16:15;100223.16;;;6.14;100.00
1616;BME280;801;47.982;7.810;2023-02-04T00:18:42;100224.38;;;6.40;100.00
1616;BME280;801;47.982;7.810;2023-02-04T00:21:08;100237.72;;;6.12;100.00
1616;BME280;801;47.982;7.810;2023-02-04T00:23:36;100213.00;;;6.03;100.00
1616;BME280;801;47.982;7.810;2023-02-04T00:26:03;100225.25;;;6.19;100.00
1616;BME280;801;47.982;7.810;2023-02-04T00:28:29;100222.47;;;6.34;100.00
1616;BME280;801;47.982;7.810;2023-02-04T00:30:56;100228.78;;;6.05;100.00
1616;BME280;801;47.982;7.810;2023-02-04T00:33:22;100227.09;;;5.97;100.00
1616;BME280;801;47.982;7.810;2023-02-04T00:35:49;100210.22;;;6.18;100.00
1616;BME280;801;47.982;7.810;2023-02-04T00:38:15;100211.38;;;6.09;100.00
1616;BME280;801;47.982;7.810;2023-02-04T00:40:43;100218.00;;;6.34;100.00
1616;BME280;801;47.982;7.810;2023-02-04T00:43:10;100212.63;;;5.91;100.00
1616;BME280;801;47.982;7.810;2023-02-04T00:45:36;100204.63;;;5.91;100.00
1616;BME280;801;47.982;7.810;2023-02-04T00:48:03;100206.38;;;5.99;100.00
1616;BME280;801;47.982;7.810;2023-02-04T00:50:29;100194.22;;;6.18;100.00
1616;BME280;801;47.982;7.810;2023-02-04T00:52:56;100202.09;;;6.05;100.00
1616;BME280;801;47.982;7.810;2023-02-04T00:55:26;100193.31;;;5.89;100.00
1616;BME280;801;47.982;7.810;2023-02-04T00:57:53;100196.25;;;6.16;100.00
1616;BME280;801;47.982;7.810;2023-02-04T01:00:20;100187.13;;;6.03;100.00
1616;BME280;801;47.982;7.810;2023-02-04T01:02:46;100182.09;;;6.15;100.00
1616;BME280;801;47.982;7.810;2023-02-04T01:05:13;100182.16;;;6.00;100.00
1616;BME280;801;47.982;7.810;2023-02-04T01:07:39;100188.69;;;5.98;100.00
1616;BME280;801;47.982;7.810;2023-02-04T01:10:06;100188.00;;;6.11;100.00
1616;BME280;801;47.982;7.810;2023-02-04T01:12:33;100192.47;;;5.89;100.00
1616;BME280;801;47.982;7.810;2023-02-04T01:15:00;100193.84;;;5.99;100.00
1616;BME280;801;47.982;7.810;2023-02-04T01:17:27;100202.97;;;5.90;100.00
1616;BME280;801;47.982;7.810;2023-02-04T01:19:53;100198.41;;;6.27;100.00
1616;BME280;801;47.982;7.810;2023-02-04T01:22:20;100196.00;;;6.11;100.00
1616;BME280;801;47.982;7.810;2023-02-04T01:24:46;100198.38;;;5.99;100.00
1616;BME280;801;47.982;7.810;2023-02-04T01:27:14;100212.66;;;6.13;100.00
1616;BME280;801;47.982;7.810;2023-02-04T01:29:41;100204.47;;;5.78;100.00
1616;BME280;801;47.982;7.810;2023-02-04T01:32:09;100193.47;;;6.02;100.00
1616;BME280;801;47.982;7.810;2023-02-04T01:34:35;100205.28;;;6.15;100.00
1616;BME280;801;47.982;7.810;2023-02-04T01:37:02;100204.06;;;6.17;100.00
1616;BME280;801;47.982;7.810;2023-02-04T01:39:28;100195.00;;;6.12;100.00
1616;BME280;801;47.982;7.810;2023-02-04T01:41:55;100188.88;;;6.18;100.00
1616;BME280;801;47.982;7.810;2023-02-04T01:44:22;100194.22;;;6.18;100.00
1616;BME280;801;47.982;7.810;2023-02-04T01:46:48;100187.47;;;6.00;100.00
1616;BME280;801;47.982;7.810;2023-02-04T01:49:16;100192.56;;;6.17;100.00
1616;BME280;801;47.982;7.810;2023-02-04T01:51:43;100196.41;;;6.36;100.00
1616;BME280;801;47.982;7.810;2023-02-04T01:54:11;100196.47;;;6.14;100.00
1616;BME280;801;47.982;7.810;2023-02-04T01:56:39;100199.00;;;6.01;100.00
1616;BME280;801;47.982;7.810;2023-02-04T01:59:10;100189.66;;;6.12;100.00
1616;BME280;801;47.982;7.810;2023-02-04T02:01:38;100191.41;;;6.26;100.00
1616;BME280;801;47.982;7.810;2023-02-04T02:04:06;100194.06;;;6.48;100.00
1616;BME280;801;47.982;7.810;2023-02-04T02:06:35;100192.97;;;6.42;100.00
1616;BME280;801;47.982;7.810;2023-02-04T02:09:04;100188.72;;;6.48;100.00
1616;BME280;801;47.982;7.810;2023-02-04T02:11:31;100193.84;;;6.21;100.00
1616;BME280;801;47.982;7.810;2023-02-04T02:13:58;100196.75;;;6.26;100.00
1616;BME280;801;47.982;7.810;2023-02-04T02:16:25;100191.88;;;6.30;100.00
1616;BME280;801;47.982;7.810;2023-02-04T02:18:51;100182.19;;;6.29;100.00
1616;BME280;801;47.982;7.810;2023-02-04T02:21:23;100187.00;;;6.40;100.00
1616;BME280;801;47.982;7.810;2023-02-04T02:23:56;100173.31;;;6.21;100.00
1616;BME280;801;47.982;7.810;2023-02-04T02:26:25;100173.50;;;6.48;100.00
1616;BME280;801;47.982;7.810;2023-02-04T02:28:52;100178.94;;;6.33;100.00
1616;BME280;801;47.982;7.810;2023-02-04T02:31:20;100162.22;;;6.24;100.00
1616;BME280;801;47.982;7.810;2023-02-04T02:33:48;100168.59;;;6.23;100.00
1616;BME280;801;47.982;7.810;2023-02-04T02:36:14;100169.25;;;6.26;100.00
1616;BME280;801;47.982;7.810;2023-02-04T02:38:41;100168.94;;;6.70;100.00
1616;BME280;801;47.982;7.810;2023-02-04T02:41:09;100176.06;;;6.63;100.00
1616;BME280;801;47.982;7.810;2023-02-04T02:43:36;100179.19;;;6.38;100.00
1616;BME280;801;47.982;7.810;2023-02-04T02:46:04;100173.84;;;6.38;100.00
1616;BME280;801;47.982;7.810;2023-02-04T02:48:31;100161.28;;;6.32;100.00
1616;BME280;801;47.982;7.810;2023-02-04T02:50:58;100166.31;;;6.49;100.00
1616;BME280;801;47.982;7.810;2023-02-04T02:53:24;100157.41;;;6.70;100.00
1616;BME280;801;47.982;7.810;2023-02-04T02:55:51;100145.97;;;6.82;100.00
1616;BME280;801;47.982;7.810;2023-02-04T02:58:22;100148.19;;;6.72;100.00
1616;BME280;801;47.982;7.810;2023-02-04T03:00:49;100154.69;;;6.63;100.00
1616;BME280;801;47.982;7.810;2023-02-04T03:03:19;100162.09;;;6.61;100.00
1616;BME280;801;47.982;7.810;2023-02-04T03:05:49;100157.81;;;6.67;100.00
1616;BME280;801;47.982;7.810;2023-02-04T03:08:18;100164.22;;;6.72;100.00
1616;BME280;801;47.982;7.810;2023-02-04T03:10:45;100164.91;;;6.88;100.00
1616;BME280;801;47.982;7.810;2023-02-04T03:13:13;100165.63;;;6.68;100.00
1616;BME280;801;47.982;7.810;2023-02-04T03:15:44;100166.22;;;6.63;100.00
1616;BME280;801;47.982;7.810;2023-02-04T03:18:13;100180.56;;;6.91;100.00
1616;BME280;801;47.982;7.810;2023-02-04T03:20:41;100172.47;;;6.77;100.00
1616;BME280;801;47.982;7.810;2023-02-04T03:23:08;100174.09;;;6.78;100.00
1616;BME280;801;47.982;7.810;2023-02-04T03:25:35;100174.66;;;6.67;100.00
1616;BME280;801;47.982;7.810;2023-02-04T03:28:01;100177.25;;;6.89;100.00
1616;BME280;801;47.982;7.810;2023-02-04T03:30:29;100174.91;;;6.72;100.00
1616;BME280;801;47.982;7.810;2023-02-04T03:32:57;100181.28;;;7.13;100.00
1616;BME280;801;47.982;7.810;2023-02-04T03:35:24;100186.53;;;6.93;100.00
1616;BME280;801;47.982;7.810;2023-02-04T03:37:51;100175.28;;;7.04;100.00
1616;BME280;801;47.982;7.810;2023-02-04T03:40:17;100182.19;;;6.92;100.00
1616;BME280;801;47.982;7.810;2023-02-04T03:42:44;100176.94;;;6.70;100.00
1616;BME280;801;47.982;7.810;2023-02-04T03:45:11;100194.34;;;6.94;100.00
1616;BME280;801;47.982;7.810;2023-02-04T03:47:37;100183.00;;;6.85;100.00
1616;BME280;801;47.982;7.810;2023-02-04T03:50:05;100173.31;;;6.84;100.00
1616;BME280;801;47.982;7.810;2023-02-04T03:52:32;100172.53;;;6.91;100.00
1616;BME280;801;47.982;7.810;2023-02-04T03:54:58;100175.69;;;6.66;100.00
1616;BME280;801;47.982;7.810;2023-02-04T03:57:25;100169.84;;;6.56;100.00
1616;BME280;801;47.982;7.810;2023-02-04T03:59:51;100164.41;;;6.42;100.00
1616;BME280;801;47.982;7.810;2023-02-04T04:02:18;100163.88;;;6.54;100.00
1616;BME280;801;47.982;7.810;2023-02-04T04:04:44;100175.19;;;6.56;100.00
1616;BME280;801;47.982;7.810;2023-02-04T04:07:12;100172.81;;;6.68;100.00
1616;BME280;801;47.982;7.810;2023-02-04T04:09:38;100170.56;;;6.71;100.00
1616;BME280;801;47.982;7.810;2023-02-04T04:12:05;100178.41;;;6.73;100.00
1616;BME280;801;47.982;7.810;2023-02-04T04:14:31;100184.28;;;6.61;100.00
1616;BME280;801;47.982;7.810;2023-02-04T04:16:58;100183.50;;;6.68;100.00
1616;BME280;801;47.982;7.810;2023-02-04T04:19:24;100177.59;;;6.72;100.00
1616;BME280;801;47.982;7.810;2023-02-04T04:21:51;100168.31;;;6.68;100.00
1616;BME280;801;47.982;7.810;2023-02-04T04:24:19;100164.22;;;6.72;100.00
1616;BME280;801;47.982;7.810;2023-02-04T04:26:45;100173.00;;;6.66;100.00
1616;BME280;801;47.982;7.810;2023-02-04T04:29:12;100166.56;;;6.54;100.00
1616;BME280;801;47.982;7.810;2023-02-04T04:31:38;100168.09;;;6.70;100.00
1616;BME280;801;47.982;7.810;2023-02-04T04:34:05;100179.63;;;6.70;100.00
1616;BME280;801;47.982;7.810;2023-02-04T04:36:31;100173.66;;;6.68;100.00
1616;BME280;801;47.982;7.810;2023-02-04T04:38:57;100175.06;;;6.64;100.00
1616;BME280;801;47.982;7.810;2023-02-04T04:41:26;100179.69;;;6.83;100.00
1616;BME280;801;47.982;7.810;2023-02-04T04:43:52;100179.94;;;6.60;100.00
1616;BME280;801;47.982;7.810;2023-02-04T04:46:19;100181.47;;;6.76;100.00
1616;BME280;801;47.982;7.810;2023-02-04T04:48:45;100173.63;;;7.03;100.00
1616;BME280;801;47.982;7.810;2023-02-04T04:51:12;100175.25;;;6.62;100.00
1616;BME280;801;47.982;7.810;2023-02-04T04:53:38;100167.91;;;6.71;100.00
1616;BME280;801;47.982;7.810;2023-02-04T04:56:05;100166.38;;;6.90;100.00
1616;BME280;801;47.982;7.810;2023-02-04T04:58:33;100168.53;;;7.15;100.00
1616;BME280;801;47.982;7.810;2023-02-04T05:00:59;100178.91;;;6.90;100.00
1616;BME280;801;47.982;7.810;2023-02-04T05:03:26;100175.88;;;6.99;100.00
1616;BME280;801;47.982;7.810;2023-02-04T05:05:52;100178.78;;;7.04;100.00
1616;BME280;801;47.982;7.810;2023-02-04T05:08:19;100178.41;;;7.14;100.00
1616;BME280;801;47.982;7.810;2023-02-04T05:10:45;100169.91;;;6.97;100.00
1616;BME280;801;47.982;7.810;2023-02-04T05:13:12;100161.25;;;7.50;100.00
1616;BME280;801;47.982;7.810;2023-02-04T05:15:40;100167.84;;;7.61;100.00
1616;BME280;801;47.982;7.810;2023-02-04T05:18:07;100164.19;;;7.62;100.00
1616;BME280;801;47.982;7.810;2023-02-04T05:20:33;100174.06;;;7.88;100.00
1616;BME280;801;47.982;7.810;2023-02-04T05:23:00;100168.69;;;7.55;100.00
1616;BME280;801;47.982;7.810;2023-02-04T05:25:27;100181.59;;;7.38;100.00
1616;BME280;801;47.982;7.810;2023-02-04T05:27:54;100177.78;;;7.12;100.00
1616;BME280;801;47.982;7.810;2023-02-04T05:30:21;100184.38;;;7.78;100.00
1616;BME280;801;47.982;7.810;2023-02-04T05:32:49;100179.38;;;7.48;100.00
1616;BME280;801;47.982;7.810;2023-02-04T05:35:15;100178.19;;;7.71;100.00
1616;BME280;801;47.982;7.810;2023-02-04T05:37:42;100185.19;;;7.72;100.00
1616;BME280;801;47.982;7.810;2023-02-04T05:40:09;100183.53;;;7.71;100.00
1616;BME280;801;47.982;7.810;2023-02-04T05:42:36;100188.03;;;7.70;100.00
1616;BME280;801;47.982;7.810;2023-02-04T05:45:03;100182.22;;;7.40;100.00
1616;BME280;801;47.982;7.810;2023-02-04T05:47:30;100179.81;;;7.65;100.00
1616;BME280;801;47.982;7.810;2023-02-04T05:49:58;100186.63;;;7.81;100.00
1616;BME280;801;47.982;7.810;2023-02-04T05:52:24;100189.31;;;7.81;100.00
1616;BME280;801;47.982;7.810;2023-02-04T05:54:50;100186.84;;;7.66;100.00
1616;BME280;801;47.982;7.810;2023-02-04T05:57:17;100193.31;;;7.43;100.00
1616;BME280;801;47.982;7.810;2023-02-04T05:59:43;100182.25;;;7.53;100.00
1616;BME280;801;47.982;7.810;2023-02-04T06:02:10;100189.09;;;7.14;100.00
1616;BME280;801;47.982;7.810;2023-02-04T06:04:36;100185.00;;;7.18;100.00
1616;BME280;801;47.982;7.810;2023-02-04T06:07:04;100190.88;;;7.48;100.00
1616;BME280;801;47.982;7.810;2023-02-04T06:09:30;100190.13;;;7.61;100.00
1616;BME280;801;47.982;7.810;2023-02-04T06:11:57;100186.59;;;7.06;100.00
1616;BME280;801;47.982;7.810;2023-02-04T06:14:23;100193.22;;;7.10;100.00
1616;BME280;801;47.982;7.810;2023-02-04T06:16:50;100201.41;;;7.63;100.00
1616;BME280;801;47.982;7.810;2023-02-04T06:19:16;100202.44;;;7.62;100.00
1616;BME280;801;47.982;7.810;2023-02-04T06:21:43;100199.97;;;7.67;100.00
1616;BME280;801;47.982;7.810;2023-02-04T06:24:11;100209.38;;;7.37;100.00
1616;BME280;801;47.982;7.810;2023-02-04T06:26:37;100199.78;;;7.62;100.00
1616;BME280;801;47.982;7.810;2023-02-04T06:29:04;100200.03;;;7.81;100.00
1616;BME280;801;47.982;7.810;2023-02-04T06:31:30;100208.28;;;7.86;100.00
1616;BME280;801;47.982;7.810;2023-02-04T06:33:57;100207.41;;;7.79;100.00
1616;BME280;801;47.982;7.810;2023-02-04T06:36:23;100211.97;;;7.85;100.00
1616;BME280;801;47.982;7.810;2023-02-04T06:38:50;100216.94;;;8.08;100.00
1616;BME280;801;47.982;7.810;2023-02-04T06:41:17;100215.69;;;7.84;100.00
1616;BME280;801;47.982;7.810;2023-02-04T06:43:44;100217.19;;;7.45;100.00
1616;BME280;801;47.982;7.810;2023-02-04T06:46:10;100216.94;;;7.26;100.00
1616;BME280;801;47.982;7.810;2023-02-04T06:48:37;100218.50;;;7.14;100.00
1616;BME280;801;47.982;7.810;2023-02-04T06:51:03;100211.38;;;7.28;100.00
1616;BME280;801;47.982;7.810;2023-02-04T06:53:30;100222.50;;;7.32;100.00
1616;BME280;801;47.982;7.810;2023-02-04T06:55:57;100227.00;;;7.24;100.00
1616;BME280;801;47.982;7.810;2023-02-04T06:58:24;100230.72;;;7.23;100.00
1616;BME280;801;47.982;7.810;2023-02-04T07:00:51;100230.53;;;6.90;100.00
1616;BME280;801;47.982;7.810;2023-02-04T07:03:17;100230.53;;;7.32;100.00
1616;BME280;801;47.982;7.810;2023-02-04T07:05:44;100229.44;;;7.19;100.00
1616;BME280;801;47.982;7.810;2023-02-04T07:08:10;100231.22;;;7.54;100.00
1616;BME280;801;47.982;7.810;2023-02-04T07:10:37;100236.16;;;7.50;100.00
1616;BME280;801;47.982;7.810;2023-02-04T07:13:03;100244.66;;;7.19;100.00
1616;BME280;801;47.982;7.810;2023-02-04T07:15:31;100237.59;;;7.04;100.00
1616;BME280;801;47.982;7.810;2023-02-04T07:17:57;100242.78;;;7.61;100.00
1616;BME280;801;47.982;7.810;2023-02-04T07:20:24;100243.34;;;7.49;100.00
1616;BME280;801;47.982;7.810;2023-02-04T07:22:50;100250.47;;;7.29;100.00
1616;BME280;801;47.982;7.810;2023-02-04T07:25:17;100260.13;;;7.23;100.00
1616;BME280;801;47.982;7.810;2023-02-04T07:27:43;100253.38;;;7.34;100.00
1616;BME280;801;47.982;7.810;2023-02-04T07:30:11;100262.19;;;7.76;100.00
1616;BME280;801;47.982;7.810;2023-02-04T07:32:39;100253.38;;;7.89;100.00
1616;BME280;801;47.982;7.810;2023-02-04T07:35:06;100252.91;;;7.79;100.00
1616;BME280;801;47.982;7.810;2023-02-04T07:37:32;100257.28;;;7.80;100.00
1616;BME280;801;47.982;7.810;2023-02-04T07:39:59;100260.19;;;7.92;100.00
1616;BME280;801;47.982;7.810;2023-02-04T07:42:26;100259.31;;;7.78;100.00
1616;BME280;801;47.982;7.810;2023-02-04T07:44:52;100260.16;;;7.85;100.00
1616;BME280;801;47.982;7.810;2023-02-04T07:47:18;100257.31;;;7.93;100.00
1616;BME280;801;47.982;7.810;2023-02-04T07:49:46;100261.41;;;7.89;100.00
1616;BME280;801;47.982;7.810;2023-02-04T07:52:13;100266.94;;;7.87;100.00
1616;BME280;801;47.982;7.810;2023-02-04T07:54:39;100262.00;;;7.84;100.00
1616;BME280;801;47.982;7.810;2023-02-04T07:57:06;100269.66;;;7.94;100.00
1616;BME280;801;47.982;7.810;2023-02-04T07:59:32;100270.69;;;7.93;100.00
1616;BME280;801;47.982;7.810;2023-02-04T08:01:58;100274.09;;;7.67;100.00
1616;BME280;801;47.982;7.810;2023-02-04T08:04:26;100287.41;;;7.54;100.00
1616;BME280;801;47.982;7.810;2023-02-04T08:06:53;100285.19;;;7.57;100.00
1616;BME280;801;47.982;7.810;2023-02-04T08:09:20;100281.97;;;7.82;100.00
1616;BME280;801;47.982;7.810;2023-02-04T08:11:48;100283.66;;;7.96;100.00
1616;BME280;801;47.982;7.810;2023-02-04T08:14:14;100293.94;;;7.86;100.00
1616;BME280;801;47.982;7.810;2023-02-04T08:16:40;100288.03;;;8.04;100.00
1616;BME280;801;47.982;7.810;2023-02-04T08:19:07;100278.28;;;7.89;100.00
1616;BME280;801;47.982;7.810;2023-02-04T08:21:33;100278.69;;;7.80;100.00
1616;BME280;801;47.982;7.810;2023-02-04T08:24:02;100287.38;;;7.95;100.00
1616;BME280;801;47.982;7.810;2023-02-04T08:26:28;100286.50;;;7.88;100.00
1616;BME280;801;47.982;7.810;2023-02-04T08:28:55;100285.81;;;7.59;100.00
1616;BME280;801;47.982;7.810;2023-02-04T08:31:21;100301.63;;;7.54;100.00
1616;BME280;801;47.982;7.810;2023-02-04T08:33:48;100293.91;;;7.73;100.00
1616;BME280;801;47.982;7.810;2023-02-04T08:36:14;100301.53;;;7.41;100.00
1616;BME280;801;47.982;7.810;2023-02-04T08:38:40;100298.63;;;7.71;100.00
1616;BME280;801;47.982;7.810;2023-02-04T08:41:10;100301.72;;;7.81;100.00
1616;BME280;801;47.982;7.810;2023-02-04T08:43:36;100311.03;;;7.43;100.00
1616;BME280;801;47.982;7.810;2023-02-04T08:46:04;100314.66;;;7.29;100.00
1616;BME280;801;47.982;7.810;2023-02-04T08:48:31;100313.84;;;7.28;100.00
1616;BME280;801;47.982;7.810;2023-02-04T08:50:57;100312.50;;;7.46;100.00
1616;BME280;801;47.982;7.810;2023-02-04T08:53:24;100323.28;;;7.59;100.00
1616;BME280;801;47.982;7.810;2023-02-04T08:55:50;100312.78;;;7.64;100.00
1616;BME280;801;47.982;7.810;2023-02-04T08:58:18;100311.59;;;7.74;100.00
1616;BME280;801;47.982;7.810;2023-02-04T09:00:44;100325.34;;;7.29;100.00
1616;BME280;801;47.982;7.810;2023-02-04T09:03:11;100316.09;;;7.32;100.00
1616;BME280;801;47.982;7.810;2023-02-04T09:05:37;100318.47;;;7.48;100.00
1616;BME280;801;47.982;7.810;2023-02-04T09:08:04;100320.53;;;7.46;100.00
1616;BME280;801;47.982;7.810;2023-02-04T09:10:30;100328.56;;;7.46;100.00
1616;BME280;801;47.982;7.810;2023-02-04T09:12:57;100335.00;;;7.23;100.00
1616;BME280;801;47.982;7.810;2023-02-04T09:15:25;100340.53;;;6.94;100.00
1616;BME280;801;47.982;7.810;2023-02-04T09:17:51;100338.41;;;7.11;100.00
1616;BME280;801;47.982;7.810;2023-02-04T09:20:25;100339.53;;;7.30;100.00
1616;BME280;801;47.982;7.810;2023-02-04T09:22:53;100350.25;;;7.30;100.00
1616;BME280;801;47.982;7.810;2023-02-04T09:25:19;100348.81;;;6.99;100.00
1616;BME280;801;47.982;7.810;2023-02-04T09:27:46;100348.81;;;6.99;100.00
1616;BME280;801;47.982;7.810;2023-02-04T09:30:13;100348.06;;;7.40;100.00
1616;BME280;801;47.982;7.810;2023-02-04T09:32:41;100349.63;;;7.62;100.00
1616;BME280;801;47.982;7.810;2023-02-04T09:35:07;100353.41;;;7.40;100.00
1616;BME280;801;47.982;7.810;2023-02-04T09:37:34;100359.91;;;7.65;100.00
1616;BME280;801;47.982;7.810;2023-02-04T09:40:00;100360.97;;;7.64;100.00
1616;BME280;801;47.982;7.810;2023-02-04T09:42:27;100365.94;;;7.74;100.00
1616;BME280;801;47.982;7.810;2023-02-04T09:44:54;100372.22;;;8.01;100.00
1616;BME280;801;47.982;7.810;2023-02-04T09:47:21;100365.94;;;8.22;100.00
1616;BME280;801;47.982;7.810;2023-02-04T09:49:50;100378.81;;;7.99;100.00
1616;BME280;801;47.982;7.810;2023-02-04T09:52:17;100368.81;;;8.21;100.00
1616;BME280;801;47.982;7.810;2023-02-04T09:54:44;100379.38;;;7.87;100.00
1616;BME280;801;47.982;7.810;2023-02-04T09:57:14;100370.66;;;8.14;100.00
1616;BME280;801;47.982;7.810;2023-02-04T09:59:42;100374.81;;;8.29;100.00
1616;BME280;801;47.982;7.810;2023-02-04T10:02:19;100372.81;;;8.45;100.00
1616;BME280;801;47.982;7.810;2023-02-04T10:04:46;100383.50;;;8.38;100.00
1616;BME280;801;47.982;7.810;2023-02-04T10:07:16;100379.41;;;8.42;100.00
1616;BME280;801;47.982;7.810;2023-02-04T10:09:46;100390.97;;;8.49;100.00
1616;BME280;801;47.982;7.810;2023-02-04T10:12:13;100387.50;;;8.56;100.00
1616;BME280;801;47.982;7.810;2023-02-04T10:14:40;100376.31;;;8.45;100.00
1616;BME280;801;47.982;7.810;2023-02-04T10:17:09;100378.00;;;8.53;100.00
1616;BME280;801;47.982;7.810;2023-02-04T10:19:36;100379.47;;;8.69;100.00
1616;BME280;801;47.982;7.810;2023-02-04T10:22:10;100385.25;;;8.79;100.00
1616;BME280;801;47.982;7.810;2023-02-04T10:24:42;100387.66;;;8.47;100.00
1616;BME280;801;47.982;7.810;2023-02-04T10:27:10;100389.09;;;8.50;100.00
1616;BME280;801;47.982;7.810;2023-02-04T10:29:40;100385.94;;;8.26;100.00
1616;BME280;801;47.982;7.810;2023-02-04T10:32:25;100389.34;;;8.48;100.00
1616;BME280;801;47.982;7.810;2023-02-04T10:34:56;100394.00;;;8.33;100.00
1616;BME280;801;47.982;7.810;2023-02-04T10:37:23;100387.69;;;8.06;100.00
1616;BME280;801;47.982;7.810;2023-02-04T10:39:51;100378.94;;;8.32;100.00
1616;BME280;801;47.982;7.810;2023-02-04T10:42:21;100378.66;;;8.62;100.00
1616;BME280;801;47.982;7.810;2023-02-04T10:44:47;100372.03;;;8.58;100.00
1616;BME280;801;47.982;7.810;2023-02-04T10:47:15;100374.81;;;8.36;100.00
1616;BME280;801;47.982;7.810;2023-02-04T10:49:51;100369.16;;;8.72;100.00
1616;BME280;801;47.982;7.810;2023-02-04T10:52:18;100377.41;;;8.58;100.00
1616;BME280;801;47.982;7.810;2023-02-04T10:54:46;100377.38;;;8.51;100.00
1616;BME280;801;47.982;7.810;2023-02-04T10:57:17;100373.41;;;7.85;100.00
1616;BME280;801;47.982;7.810;2023-02-04T10:59:46;100371.16;;;7.89;100.00
1616;BME280;801;47.982;7.810;2023-02-04T11:02:35;100370.94;;;7.84;100.00
1616;BME280;801;47.982;7.810;2023-02-04T11:05:08;100368.97;;;7.99;100.00
1616;BME280;801;47.982;7.810;2023-02-04T11:07:36;100379.06;;;8.04;100.00
1616;BME280;801;47.982;7.810;2023-02-04T11:10:03;100384.44;;;8.10;100.00
1616;BME280;801;47.982;7.810;2023-02-04T11:12:40;100387.56;;;8.21;100.00
1616;BME280;801;47.982;7.810;2023-02-04T11:15:35;100373.38;;;8.27;100.00
1616;BME280;801;47.982;7.810;2023-02-04T11:18:03;100384.66;;;8.16;100.00
1616;BME280;801;47.982;7.810;2023-02-04T11:20:32;100382.94;;;8.01;100.00
1616;BME280;801;47.982;7.810;2023-02-04T11:23:16;100396.34;;;8.63;100.00
1616;BME280;801;47.982;7.810;2023-02-04T11:25:42;100381.09;;;8.63;100.00
1616;BME280;801;47.982;7.810;2023-02-04T11:28:14;100385.25;;;9.32;100.00
1616;BME280;801;47.982;7.810;2023-02-04T11:30:41;100387.53;;;9.09;100.00
1616;BME280;801;47.982;7.810;2023-02-04T11:33:22;100380.09;;;8.71;100.00
1616;BME280;801;47.982;7.810;2023-02-04T11:36:00;100384.00;;;9.02;100.00
1616;BME280;801;47.982;7.810;2023-02-04T11:38:29;100381.94;;;9.04;100.00
1616;BME280;801;47.982;7.810;2023-02-04T11:40:57;100391.03;;;9.03;100.00
1616;BME280;801;47.982;7.810;2023-02-04T11:43:25;100401.31;;;9.52;100.00
1616;BME280;801;47.982;7.810;2023-02-04T11:46:00;100392.66;;;9.30;100.00
1616;BME280;801;47.982;7.810;2023-02-04T11:48:27;100391.84;;;9.30;100.00
1616;BME280;801;47.982;7.810;2023-02-04T11:50:54;100386.47;;;9.37;100.00
1616;BME280;801;47.982;7.810;2023-02-04T11:53:23;100388.97;;;9.31;100.00
1616;BME280;801;47.982;7.810;2023-02-04T11:55:50;100390.84;;;8.84;100.00
1616;BME280;801;47.982;7.810;2023-02-04T11:58:18;100387.31;;;9.30;100.00
1616;BME280;801;47.982;7.810;2023-02-04T12:00:47;100393.66;;;9.69;100.00
1616;BME280;801;47.982;7.810;2023-02-04T12:03:21;100395.13;;;9.52;100.00
1616;BME280;801;47.982;7.810;2023-02-04T12:05:49;100397.72;;;9.92;100.00
1616;BME280;801;47.982;7.810;2023-02-04T12:08:25;100396.31;;;9.83;100.00
1616;BME280;801;47.982;7.810;2023-02-04T12:11:00;100395.84;;;9.92;100.00
1616;BME280;801;47.982;7.810;2023-02-04T12:13:28;100388.44;;;9.81;100.00
1616;BME280;801;47.982;7.810;2023-02-04T12:15:59;100386.31;;;10.03;100.00
1616;BME280;801;47.982;7.810;2023-02-04T12:18:26;100390.56;;;9.66;100.00
1616;BME280;801;47.982;7.810;2023-02-04T12:20:53;100396.78;;;9.46;100.00
1616;BME280;801;47.982;7.810;2023-02-04T12:23:19;100397.41;;;9.42;100.00
1616;BME280;801;47.982;7.810;2023-02-04T12:25:46;100394.53;;;9.10;100.00
1616;BME280;801;47.982;7.810;2023-02-04T12:28:13;100395.59;;;9.22;100.00
1616;BME280;801;47.982;7.810;2023-02-04T12:30:39;100390.00;;;9.10;100.00
1616;BME280;801;47.982;7.810;2023-02-04T12:33:07;100403.34;;;9.70;100.00
1616;BME280;801;47.982;7.810;2023-02-04T12:35:34;100401.72;;;9.56;100.00
1616;BME280;801;47.982;7.810;2023-02-04T12:38:00;100404.81;;;9.53;100.00
1616;BME280;801;47.982;7.810;2023-02-04T12:40:27;100394.72;;;9.35;100.00
1616;BME280;801;47.982;7.810;2023-02-04T12:42:54;100395.91;;;9.72;100.00
1616;BME280;801;47.982;7.810;2023-02-04T12:45:20;100401.69;;;9.76;100.00
1616;BME280;801;47.982;7.810;2023-02-04T12:47:47;100395.97;;;9.39;100.00
1616;BME280;801;47.982;7.810;2023-02-04T12:50:17;100396.41;;;9.16;100.00
1616;BME280;801;47.982;7.810;2023-02-04T12:52:47;100393.50;;;9.31;100.00
1616;BME280;801;47.982;7.810;2023-02-04T12:55:14;100393.47;;;9.51;100.00
1616;BME280;801;47.982;7.810;2023-02-04T12:57:40;100385.63;;;9.56;100.00
1616;BME280;801;47.982;7.810;2023-02-04T13:00:08;100388.75;;;9.26;100.00
1616;BME280;801;47.982;7.810;2023-02-04T13:02:35;100383.19;;;9.08;100.00
1616;BME280;801;47.982;7.810;2023-02-04T13:05:01;100397.19;;;9.50;100.00
1616;BME280;801;47.982;7.810;2023-02-04T13:07:29;100395.16;;;9.39;100.00
1616;BME280;801;47.982;7.810;2023-02-04T13:09:57;100405.69;;;9.33;100.00
1616;BME280;801;47.982;7.810;2023-02-04T13:12:24;100399.88;;;9.56;100.00
1616;BME280;801;47.982;7.810;2023-02-04T13:14:50;100397.22;;;9.17;100.00
1616;BME280;801;47.982;7.810;2023-02-04T13:17:17;100393.28;;;9.39;100.00
1616;BME280;801;47.982;7.810;2023-02-04T13:19:43;100398.03;;;9.37;100.00
1616;BME280;801;47.982;7.810;2023-02-04T13:22:10;100394.09;;;9.40;100.00
1616;BME280;801;47.982;7.810;2023-02-04T13:24:38;100386.84;;;9.67;100.00